createdAt,value
2016-11-30T00:00:00.082Z,-0.41
2016-11-30T00:00:21.929Z,-0.43
2016-11-30T00:00:43.640Z,-0.42
2016-11-30T00:01:05.356Z,-0.44
2016-11-30T00:01:27.080Z,-0.44
2016-11-30T00:01:48.798Z,-0.47
2016-11-30T00:02:10.511Z,-0.51
2016-11-30T00:02:32.226Z,-0.57
2016-11-30T00:02:53.933Z,-0.60
2016-11-30T00:03:15.652Z,-0.60
2016-11-30T00:03:37.368Z,-0.58
2016-11-30T00:03:59.085Z,-0.52
2016-11-30T00:04:20.795Z,-0.46
2016-11-30T00:04:42.516Z,-0.44
2016-11-30T00:05:04.268Z,-0.43
2016-11-30T00:05:25.988Z,-0.40
2016-11-30T00:05:47.705Z,-0.41
2016-11-30T00:06:09.418Z,-0.45
2016-11-30T00:06:31.160Z,-0.41
2016-11-30T00:06:52.865Z,-0.38
2016-11-30T00:07:14.598Z,-0.38
2016-11-30T00:07:36.316Z,-0.25
2016-11-30T00:07:58.031Z,-0.21
2016-11-30T00:08:19.741Z,-0.20
2016-11-30T00:08:41.461Z,-0.17
2016-11-30T00:09:03.181Z,-0.14
2016-11-30T00:09:24.899Z,-0.20
2016-11-30T00:09:46.737Z,-0.22
2016-11-30T00:10:08.449Z,-0.25
2016-11-30T00:10:30.163Z,-0.30
2016-11-30T00:10:51.872Z,-0.33
2016-11-30T00:11:13.585Z,-0.36
2016-11-30T00:11:35.295Z,-0.39
2016-11-30T00:11:57.010Z,-0.40
2016-11-30T00:12:18.721Z,-0.45
2016-11-30T00:12:40.444Z,-0.45
2016-11-30T00:13:02.152Z,-0.46
2016-11-30T00:13:23.859Z,-0.46
2016-11-30T00:13:45.567Z,-0.47
2016-11-30T00:14:07.278Z,-0.49
2016-11-30T00:14:29.126Z,-0.46
2016-11-30T00:14:50.842Z,-0.46
2016-11-30T00:15:12.563Z,-0.46
2016-11-30T00:15:34.278Z,-0.47
2016-11-30T00:15:55.999Z,-0.47
2016-11-30T00:16:17.706Z,-0.46
2016-11-30T00:16:39.415Z,-0.48
2016-11-30T00:17:01.132Z,-0.51
2016-11-30T00:17:22.849Z,-0.52
2016-11-30T00:17:44.563Z,-0.53
2016-11-30T00:18:06.272Z,-0.55
2016-11-30T00:18:27.989Z,-0.57
2016-11-30T00:18:49.710Z,-0.57
2016-11-30T00:19:11.507Z,-0.60
2016-11-30T00:19:33.230Z,-0.62
2016-11-30T00:19:54.946Z,-0.64
2016-11-30T00:20:16.658Z,-0.62
2016-11-30T00:20:38.368Z,-0.53
2016-11-30T00:21:00.080Z,-0.43
2016-11-30T00:21:22.790Z,-0.40
2016-11-30T00:21:44.496Z,-0.43
2016-11-30T00:22:06.216Z,-0.43
2016-11-30T00:22:27.929Z,-0.41
2016-11-30T00:22:49.647Z,-0.48
2016-11-30T00:23:11.364Z,-0.47
2016-11-30T00:23:33.072Z,-0.47
2016-11-30T00:23:54.789Z,-0.51
2016-11-30T00:24:16.503Z,-0.53
2016-11-30T00:24:38.242Z,-0.46
2016-11-30T00:24:59.963Z,-0.38
2016-11-30T00:25:21.670Z,-0.36
2016-11-30T00:25:43.386Z,-0.36
2016-11-30T00:26:05.113Z,-0.40
2016-11-30T00:26:26.940Z,-0.43
2016-11-30T00:26:48.658Z,-0.44
2016-11-30T00:27:10.374Z,-0.44
2016-11-30T00:27:32.096Z,-0.47
2016-11-30T00:27:53.804Z,-0.50
2016-11-30T00:28:15.524Z,-0.53
2016-11-30T00:28:37.249Z,-0.57
2016-11-30T00:28:58.957Z,-0.63
2016-11-30T00:29:20.675Z,-0.68
2016-11-30T00:29:42.395Z,-0.74
2016-11-30T00:30:04.105Z,-0.72
2016-11-30T00:30:25.813Z,-0.73
2016-11-30T00:30:47.535Z,-0.81
2016-11-30T00:31:09.242Z,-0.88
2016-11-30T00:31:30.962Z,-0.94
2016-11-30T00:31:52.671Z,-0.97
2016-11-30T00:32:14.382Z,-0.89
2016-11-30T00:32:36.103Z,-0.73
2016-11-30T00:32:57.818Z,-0.53
2016-11-30T00:33:19.538Z,-0.41
2016-11-30T00:33:41.254Z,-0.35
2016-11-30T00:34:02.980Z,-0.40
2016-11-30T00:34:24.687Z,-0.47
2016-11-30T00:34:46.402Z,-0.52
2016-11-30T00:35:08.112Z,-0.55
2016-11-30T00:35:29.824Z,-0.59
2016-11-30T00:35:51.539Z,-0.68
2016-11-30T00:36:13.257Z,-0.74
2016-11-30T00:36:34.976Z,-0.83
2016-11-30T00:36:56.684Z,-0.93
2016-11-30T00:37:18.416Z,-0.98
2016-11-30T00:37:40.131Z,-1.00
2016-11-30T00:38:01.844Z,-1.00
2016-11-30T00:38:23.561Z,-0.98
2016-11-30T00:38:45.271Z,-1.00
2016-11-30T00:39:06.986Z,-1.03
2016-11-30T00:39:28.701Z,-1.08
2016-11-30T00:39:50.435Z,-1.10
2016-11-30T00:40:12.158Z,-1.10
2016-11-30T00:40:33.863Z,-1.09
2016-11-30T00:40:55.584Z,-1.05
2016-11-30T00:41:17.306Z,-1.07
2016-11-30T00:41:39.025Z,-1.06
2016-11-30T00:42:01.764Z,-1.04
2016-11-30T00:42:23.483Z,-1.07
2016-11-30T00:42:45.208Z,-1.10
2016-11-30T00:43:06.914Z,-1.04
2016-11-30T00:43:28.648Z,-1.11
2016-11-30T00:43:50.361Z,-1.15
2016-11-30T00:44:12.101Z,-1.19
2016-11-30T00:44:33.817Z,-1.18
2016-11-30T00:44:55.524Z,-1.16
2016-11-30T00:45:18.238Z,-1.15
2016-11-30T00:45:39.956Z,-1.03
2016-11-30T00:46:01.667Z,-0.93
2016-11-30T00:46:23.380Z,-0.89
2016-11-30T00:46:45.102Z,-0.79
2016-11-30T00:47:06.810Z,-0.67
2016-11-30T00:47:28.525Z,-0.70
2016-11-30T00:47:50.239Z,-0.72
2016-11-30T00:48:11.950Z,-0.70
2016-11-30T00:48:33.665Z,-0.63
2016-11-30T00:48:55.383Z,-0.60
2016-11-30T00:49:17.123Z,-0.56
2016-11-30T00:49:38.837Z,-0.52
2016-11-30T00:50:00.552Z,-0.54
2016-11-30T00:50:22.269Z,-0.52
2016-11-30T00:50:43.977Z,-0.53
2016-11-30T00:51:05.702Z,-0.56
2016-11-30T00:51:27.409Z,-0.64
2016-11-30T00:51:53.889Z,-0.75
2016-11-30T00:52:15.639Z,-0.82
2016-11-30T00:52:37.374Z,-0.91
2016-11-30T00:52:59.084Z,-0.97
2016-11-30T00:53:20.806Z,-1.05
2016-11-30T00:53:42.520Z,-1.12
2016-11-30T00:54:04.237Z,-1.12
2016-11-30T00:54:25.969Z,-1.08
2016-11-30T00:54:47.679Z,-1.09
2016-11-30T00:55:09.398Z,-1.06
2016-11-30T00:55:31.112Z,-1.07
2016-11-30T00:55:52.829Z,-1.10
2016-11-30T00:56:14.549Z,-1.11
2016-11-30T00:56:36.261Z,-1.16
2016-11-30T00:56:57.969Z,-1.17
2016-11-30T00:57:19.683Z,-1.19
2016-11-30T00:57:41.395Z,-1.20
2016-11-30T00:58:03.100Z,-1.21
2016-11-30T00:58:24.827Z,-1.20
2016-11-30T00:58:46.533Z,-1.19
2016-11-30T00:59:08.252Z,-1.14
2016-11-30T00:59:29.962Z,-1.07
2016-11-30T00:59:51.679Z,-1.00
2016-11-30T01:00:13.406Z,-0.96
2016-11-30T01:00:35.121Z,-0.87
2016-11-30T01:00:56.832Z,-0.82
2016-11-30T01:01:18.538Z,-0.82
2016-11-30T01:01:40.258Z,-0.85
2016-11-30T01:02:02.019Z,-0.85
2016-11-30T01:02:23.739Z,-0.85
2016-11-30T01:02:45.448Z,-0.86
2016-11-30T01:03:07.157Z,-0.81
2016-11-30T01:03:28.866Z,-0.85
2016-11-30T01:03:50.581Z,-0.93
2016-11-30T01:04:12.296Z,-0.89
2016-11-30T01:04:34.019Z,-0.89
2016-11-30T01:04:55.741Z,-0.93
2016-11-30T01:05:17.450Z,-0.87
2016-11-30T01:05:39.158Z,-0.82
2016-11-30T01:06:00.878Z,-0.86
2016-11-30T01:06:22.588Z,-0.92
2016-11-30T01:06:44.330Z,-0.96
2016-11-30T01:07:06.013Z,-1.02
2016-11-30T01:07:27.729Z,-1.06
2016-11-30T01:07:49.439Z,-1.10
2016-11-30T01:08:37.671Z,-1.32
2016-11-30T01:08:59.383Z,-1.34
2016-11-30T01:09:21.095Z,-1.36
2016-11-30T01:09:42.804Z,-1.37
2016-11-30T01:10:04.531Z,-1.39
2016-11-30T01:10:26.247Z,-1.38
2016-11-30T01:10:47.962Z,-1.39
2016-11-30T01:11:09.743Z,-1.37
2016-11-30T01:11:31.498Z,-1.33
2016-11-30T01:11:53.210Z,-1.35
2016-11-30T01:12:14.927Z,-1.33
2016-11-30T01:12:36.636Z,-1.28
2016-11-30T01:12:58.352Z,-1.23
2016-11-30T01:13:20.072Z,-1.13
2016-11-30T01:13:41.791Z,-1.06
2016-11-30T01:14:03.510Z,-1.12
2016-11-30T01:14:25.221Z,-1.19
2016-11-30T01:14:46.937Z,-1.24
2016-11-30T01:15:08.663Z,-1.25
2016-11-30T01:15:30.380Z,-1.26
2016-11-30T01:15:52.098Z,-1.27
2016-11-30T01:16:13.811Z,-1.28
2016-11-30T01:16:35.518Z,-1.31
2016-11-30T01:17:02.007Z,-1.30
2016-11-30T01:17:23.714Z,-1.30
2016-11-30T01:17:45.438Z,-1.27
2016-11-30T01:18:07.151Z,-1.26
2016-11-30T01:18:28.887Z,-1.30
2016-11-30T01:18:50.598Z,-1.28
2016-11-30T01:19:12.316Z,-1.30
2016-11-30T01:19:34.026Z,-1.32
2016-11-30T01:19:55.739Z,-1.33
2016-11-30T01:20:17.454Z,-1.36
2016-11-30T01:20:39.172Z,-1.35
2016-11-30T01:21:00.887Z,-1.34
2016-11-30T01:21:22.610Z,-1.35
2016-11-30T01:21:46.918Z,-1.30
2016-11-30T01:22:08.639Z,-1.26
2016-11-30T01:22:30.380Z,-1.16
2016-11-30T01:22:52.094Z,-1.15
2016-11-30T01:23:13.825Z,-1.12
2016-11-30T01:23:35.550Z,-1.10
2016-11-30T01:23:57.277Z,-1.14
2016-11-30T01:24:18.997Z,-1.15
2016-11-30T01:24:40.717Z,-1.15
2016-11-30T01:25:03.563Z,-1.19
2016-11-30T01:25:25.282Z,-1.21
2016-11-30T01:25:47.003Z,-1.22
2016-11-30T01:26:10.729Z,-1.21
2016-11-30T01:26:32.436Z,-1.19
2016-11-30T01:26:54.176Z,-1.20
2016-11-30T01:27:15.870Z,-1.20
2016-11-30T01:27:37.586Z,-1.22
2016-11-30T01:27:59.297Z,-1.26
2016-11-30T01:28:21.010Z,-1.27
2016-11-30T01:28:42.731Z,-1.26
2016-11-30T01:29:04.434Z,-1.27
2016-11-30T01:29:26.142Z,-1.27
2016-11-30T01:29:47.867Z,-1.26
2016-11-30T01:30:09.588Z,-1.25
2016-11-30T01:30:31.310Z,-1.28
2016-11-30T01:30:53.019Z,-1.26
2016-11-30T01:31:14.732Z,-1.26
2016-11-30T01:31:36.443Z,-1.28
2016-11-30T01:31:58.158Z,-1.26
2016-11-30T01:32:19.861Z,-1.26
2016-11-30T01:32:41.576Z,-1.28
2016-11-30T01:33:03.283Z,-1.32
2016-11-30T01:33:25.001Z,-1.35
2016-11-30T01:33:46.715Z,-1.35
2016-11-30T01:34:08.439Z,-1.34
2016-11-30T01:34:30.200Z,-1.32
2016-11-30T01:34:51.919Z,-1.34
2016-11-30T01:35:13.628Z,-1.36
2016-11-30T01:35:35.350Z,-1.40
2016-11-30T01:35:57.056Z,-1.43
2016-11-30T01:36:18.776Z,-1.38
2016-11-30T01:36:40.484Z,-1.40
2016-11-30T01:37:02.210Z,-1.34
2016-11-30T01:37:23.901Z,-1.30
2016-11-30T01:37:45.625Z,-1.30
2016-11-30T01:38:07.364Z,-1.29
2016-11-30T01:38:29.082Z,-1.31
2016-11-30T01:38:50.800Z,-1.31
2016-11-30T01:39:12.531Z,-1.27
2016-11-30T01:39:34.243Z,-1.27
2016-11-30T01:39:55.954Z,-1.27
2016-11-30T01:40:17.661Z,-1.09
2016-11-30T01:40:39.377Z,-0.97
2016-11-30T01:41:01.083Z,-0.92
2016-11-30T01:41:22.805Z,-0.90
2016-11-30T01:41:44.517Z,-0.89
2016-11-30T01:42:06.340Z,-0.90
2016-11-30T01:42:28.057Z,-1.00
2016-11-30T01:42:49.768Z,-1.10
2016-11-30T01:43:11.510Z,-1.19
2016-11-30T01:43:33.224Z,-1.25
2016-11-30T01:43:54.935Z,-1.30
2016-11-30T01:44:16.661Z,-1.32
2016-11-30T01:44:38.379Z,-1.32
2016-11-30T01:45:00.089Z,-1.32
2016-11-30T01:45:21.807Z,-1.20
2016-11-30T01:45:43.522Z,-1.19
2016-11-30T01:46:05.240Z,-1.24
2016-11-30T01:46:26.960Z,-1.21
2016-11-30T01:46:48.682Z,-1.27
2016-11-30T01:47:10.401Z,-1.28
2016-11-30T01:47:32.120Z,-1.27
2016-11-30T01:47:53.826Z,-1.28
2016-11-30T01:48:16.542Z,-1.21
2016-11-30T01:48:38.260Z,-1.26
2016-11-30T01:48:59.978Z,-1.37
2016-11-30T01:49:21.689Z,-1.51
2016-11-30T01:49:43.407Z,-1.64
2016-11-30T01:50:05.120Z,-1.73
2016-11-30T01:50:26.846Z,-1.77
2016-11-30T01:50:48.555Z,-1.83
2016-11-30T01:51:10.271Z,-1.85
2016-11-30T01:51:31.992Z,-1.85
2016-11-30T01:51:53.713Z,-1.83
2016-11-30T01:52:15.469Z,-1.84
2016-11-30T01:52:37.198Z,-1.82
2016-11-30T01:52:58.920Z,-1.81
2016-11-30T01:53:20.627Z,-1.76
2016-11-30T01:53:42.345Z,-1.74
2016-11-30T01:54:04.064Z,-1.76
2016-11-30T01:54:25.906Z,-1.78
2016-11-30T01:54:47.626Z,-1.75
2016-11-30T01:55:09.346Z,-1.70
2016-11-30T01:55:31.047Z,-1.67
2016-11-30T01:55:52.771Z,-1.61
2016-11-30T01:56:14.483Z,-1.64
2016-11-30T01:56:36.200Z,-1.70
2016-11-30T01:56:57.932Z,-1.75
2016-11-30T01:57:19.650Z,-1.76
2016-11-30T01:57:41.376Z,-1.78
2016-11-30T01:58:03.092Z,-1.79
2016-11-30T01:58:24.814Z,-1.78
2016-11-30T01:58:46.534Z,-1.82
2016-11-30T01:59:08.257Z,-1.87
2016-11-30T01:59:29.968Z,-1.88
2016-11-30T01:59:51.678Z,-1.78
2016-11-30T02:00:13.404Z,-1.64
2016-11-30T02:00:35.115Z,-1.58
2016-11-30T02:00:56.829Z,-1.69
2016-11-30T02:01:18.545Z,-1.74
2016-11-30T02:01:40.255Z,-1.78
2016-11-30T02:02:01.976Z,-1.77
2016-11-30T02:02:23.689Z,-1.85
2016-11-30T02:02:45.405Z,-1.83
2016-11-30T02:03:07.123Z,-1.84
2016-11-30T02:03:28.838Z,-1.84
2016-11-30T02:03:50.721Z,-1.86
2016-11-30T02:04:12.313Z,-1.87
2016-11-30T02:04:34.054Z,-1.83
2016-11-30T02:04:55.749Z,-1.85
2016-11-30T02:05:17.462Z,-1.85
2016-11-30T02:05:39.181Z,-1.85
2016-11-30T02:06:00.902Z,-1.80
2016-11-30T02:06:22.607Z,-1.72
2016-11-30T02:06:44.325Z,-1.77
2016-11-30T02:07:06.038Z,-1.83
2016-11-30T02:07:27.764Z,-1.85
2016-11-30T02:07:49.481Z,-1.81
2016-11-30T02:08:11.204Z,-1.80
2016-11-30T02:08:32.976Z,-1.82
2016-11-30T02:08:54.686Z,-1.83
2016-11-30T02:09:16.406Z,-1.85
2016-11-30T02:09:38.127Z,-1.84
2016-11-30T02:09:59.831Z,-1.80
2016-11-30T02:10:21.546Z,-1.80
2016-11-30T02:10:43.258Z,-1.84
2016-11-30T02:11:04.966Z,-1.86
2016-11-30T02:11:26.683Z,-1.88
2016-11-30T02:11:48.395Z,-1.85
2016-11-30T02:12:10.111Z,-1.85
2016-11-30T02:12:31.823Z,-1.84
2016-11-30T02:12:53.538Z,-1.84
2016-11-30T02:13:15.293Z,-1.81
2016-11-30T02:13:37.006Z,-1.80
2016-11-30T02:13:58.739Z,-1.84
2016-11-30T02:14:20.464Z,-1.85
2016-11-30T02:14:42.176Z,-1.83
2016-11-30T02:15:03.909Z,-1.83
2016-11-30T02:15:25.625Z,-1.78
2016-11-30T02:15:47.337Z,-1.76
2016-11-30T02:16:09.046Z,-1.77
2016-11-30T02:16:30.764Z,-1.70
2016-11-30T02:16:52.476Z,-1.66
2016-11-30T02:17:14.185Z,-1.62
2016-11-30T02:17:35.906Z,-1.63
2016-11-30T02:17:57.705Z,-1.63
2016-11-30T02:18:19.423Z,-1.60
2016-11-30T02:18:41.136Z,-1.61
2016-11-30T02:19:02.852Z,-1.61
2016-11-30T02:19:24.577Z,-1.74
2016-11-30T02:19:46.292Z,-1.77
2016-11-30T02:20:07.995Z,-1.77
2016-11-30T02:20:29.713Z,-1.78
2016-11-30T02:20:51.425Z,-1.74
2016-11-30T02:21:13.134Z,-1.75
2016-11-30T02:21:34.849Z,-1.81
2016-11-30T02:21:56.570Z,-1.87
2016-11-30T02:22:18.296Z,-1.92
2016-11-30T02:22:40.136Z,-1.89
2016-11-30T02:23:01.851Z,-1.90
2016-11-30T02:23:23.561Z,-1.88
2016-11-30T02:23:45.276Z,-1.88
2016-11-30T02:24:06.995Z,-1.92
2016-11-30T02:24:28.702Z,-1.88
2016-11-30T02:24:50.421Z,-1.87
2016-11-30T02:25:12.135Z,-1.88
2016-11-30T02:25:33.841Z,-1.84
2016-11-30T02:25:55.561Z,-1.87
2016-11-30T02:26:17.273Z,-1.91
2016-11-30T02:26:38.988Z,-1.91
2016-11-30T02:27:00.705Z,-1.86
2016-11-30T02:27:22.414Z,-1.86
2016-11-30T02:27:44.137Z,-1.86
2016-11-30T02:28:05.860Z,-1.84
2016-11-30T02:28:27.581Z,-1.80
2016-11-30T02:28:49.291Z,-1.79
2016-11-30T02:29:11.003Z,-1.75
2016-11-30T02:29:32.715Z,-1.78
2016-11-30T02:29:54.431Z,-1.78
2016-11-30T02:30:16.159Z,-1.78
2016-11-30T02:30:37.870Z,-1.75
2016-11-30T02:30:59.584Z,-1.79
2016-11-30T02:31:21.294Z,-1.79
2016-11-30T02:31:42.997Z,-1.81
2016-11-30T02:32:04.726Z,-1.82
2016-11-30T02:32:26.442Z,-1.85
2016-11-30T02:32:48.160Z,-1.86
2016-11-30T02:33:09.874Z,-1.86
2016-11-30T02:33:31.595Z,-1.86
2016-11-30T02:33:53.335Z,-1.83
2016-11-30T02:34:15.081Z,-1.81
2016-11-30T02:34:36.783Z,-1.82
2016-11-30T02:34:58.499Z,-1.83
2016-11-30T02:35:20.215Z,-1.81
2016-11-30T02:35:41.941Z,-1.80
2016-11-30T02:36:03.656Z,-1.80
2016-11-30T02:36:25.378Z,-1.86
2016-11-30T02:36:47.211Z,-1.89
2016-11-30T02:37:08.931Z,-1.90
2016-11-30T02:37:30.646Z,-1.92
2016-11-30T02:37:52.350Z,-1.92
2016-11-30T02:38:40.549Z,-1.94
2016-11-30T02:39:02.256Z,-1.97
2016-11-30T02:39:23.983Z,-2.01
2016-11-30T02:39:45.695Z,-2.01
2016-11-30T02:40:07.415Z,-2.04
2016-11-30T02:40:29.143Z,-2.04
2016-11-30T02:40:50.860Z,-2.00
2016-11-30T02:41:12.573Z,-2.00
2016-11-30T02:41:34.301Z,-1.92
2016-11-30T02:41:56.016Z,-1.89
2016-11-30T02:42:17.733Z,-1.89
2016-11-30T02:42:39.639Z,-1.90
2016-11-30T02:43:01.231Z,-1.95
2016-11-30T02:43:22.950Z,-1.92
2016-11-30T02:43:44.661Z,-1.77
2016-11-30T02:44:06.374Z,-1.64
2016-11-30T02:44:28.099Z,-1.56
2016-11-30T02:44:49.811Z,-1.55
2016-11-30T02:45:11.534Z,-1.53
2016-11-30T02:45:33.245Z,-1.56
2016-11-30T02:45:54.955Z,-1.61
2016-11-30T02:46:16.672Z,-1.64
2016-11-30T02:46:38.378Z,-1.71
2016-11-30T02:47:00.089Z,-1.79
2016-11-30T02:47:21.807Z,-1.80
2016-11-30T02:47:43.530Z,-1.73
2016-11-30T02:48:05.252Z,-1.63
2016-11-30T02:48:26.969Z,-1.63
2016-11-30T02:48:48.679Z,-1.67
2016-11-30T02:49:10.390Z,-1.78
2016-11-30T02:49:32.112Z,-1.80
2016-11-30T02:49:53.829Z,-1.92
2016-11-30T02:50:15.549Z,-1.97
2016-11-30T02:50:37.262Z,-2.00
2016-11-30T02:50:58.978Z,-1.99
2016-11-30T02:51:20.702Z,-1.99
2016-11-30T02:51:42.416Z,-1.97
2016-11-30T02:52:04.287Z,-1.99
2016-11-30T02:52:26.012Z,-1.94
2016-11-30T02:52:47.810Z,-1.91
2016-11-30T02:53:09.622Z,-1.91
2016-11-30T02:53:31.491Z,-1.88
2016-11-30T02:53:53.200Z,-1.73
2016-11-30T02:54:14.921Z,-1.59
2016-11-30T02:54:36.647Z,-1.63
2016-11-30T02:54:58.366Z,-1.61
2016-11-30T02:55:20.082Z,-1.61
2016-11-30T02:55:41.795Z,-1.65
2016-11-30T02:56:03.515Z,-1.73
2016-11-30T02:56:25.240Z,-1.82
2016-11-30T02:56:47.070Z,-1.90
2016-11-30T02:57:13.556Z,-2.00
2016-11-30T02:57:35.277Z,-2.06
2016-11-30T02:57:57.006Z,-2.13
2016-11-30T02:58:18.715Z,-2.15
2016-11-30T02:58:40.436Z,-2.21
2016-11-30T02:59:02.155Z,-2.28
2016-11-30T02:59:23.865Z,-2.28
2016-11-30T02:59:45.579Z,-2.09
2016-11-30T03:00:07.311Z,-1.91
2016-11-30T03:00:29.024Z,-1.81
2016-11-30T03:00:50.733Z,-1.71
2016-11-30T03:01:12.450Z,-1.75
2016-11-30T03:01:34.165Z,-1.80
2016-11-30T03:01:55.875Z,-1.83
2016-11-30T03:02:17.593Z,-1.92
2016-11-30T03:02:39.325Z,-2.02
2016-11-30T03:03:01.033Z,-2.07
2016-11-30T03:03:22.748Z,-2.07
2016-11-30T03:03:44.457Z,-2.08
2016-11-30T03:04:06.171Z,-2.08
2016-11-30T03:04:27.890Z,-2.11
2016-11-30T03:04:49.605Z,-2.09
2016-11-30T03:05:11.329Z,-2.12
2016-11-30T03:05:33.038Z,-2.14
2016-11-30T03:05:54.747Z,-2.08
2016-11-30T03:06:16.470Z,-1.94
2016-11-30T03:06:38.178Z,-1.97
2016-11-30T03:06:59.900Z,-2.02
2016-11-30T03:07:21.654Z,-2.01
2016-11-30T03:07:43.365Z,-1.95
2016-11-30T03:08:05.080Z,-1.91
2016-11-30T03:08:26.795Z,-1.90
2016-11-30T03:08:48.509Z,-1.91
2016-11-30T03:09:10.246Z,-1.91
2016-11-30T03:09:31.964Z,-1.95
2016-11-30T03:09:53.683Z,-1.99
2016-11-30T03:10:15.412Z,-2.03
2016-11-30T03:10:37.114Z,-2.07
2016-11-30T03:10:58.827Z,-2.11
2016-11-30T03:11:20.544Z,-2.15
2016-11-30T03:11:42.261Z,-2.19
2016-11-30T03:12:04.046Z,-2.17
2016-11-30T03:12:25.773Z,-2.10
2016-11-30T03:12:47.489Z,-2.01
2016-11-30T03:13:09.205Z,-1.95
2016-11-30T03:13:30.914Z,-1.82
2016-11-30T03:13:52.624Z,-1.70
2016-11-30T03:14:14.341Z,-1.75
2016-11-30T03:14:36.050Z,-1.63
2016-11-30T03:14:57.783Z,-1.52
2016-11-30T03:15:19.493Z,-1.46
2016-11-30T03:15:41.206Z,-1.56
2016-11-30T03:16:02.918Z,-1.72
2016-11-30T03:16:24.628Z,-1.70
2016-11-30T03:16:46.356Z,-1.68
2016-11-30T03:17:08.071Z,-1.78
2016-11-30T03:17:29.799Z,-1.70
2016-11-30T03:17:51.512Z,-1.60
2016-11-30T03:18:13.226Z,-1.62
2016-11-30T03:18:34.936Z,-1.70
2016-11-30T03:18:56.650Z,-1.77
2016-11-30T03:19:18.366Z,-1.81
2016-11-30T03:19:40.082Z,-1.88
2016-11-30T03:20:01.810Z,-1.91
2016-11-30T03:20:23.528Z,-1.88
2016-11-30T03:20:45.228Z,-1.89
2016-11-30T03:21:06.938Z,-1.97
2016-11-30T03:21:28.677Z,-2.04
2016-11-30T03:21:50.399Z,-2.09
2016-11-30T03:22:12.110Z,-2.11
2016-11-30T03:22:33.827Z,-2.14
2016-11-30T03:22:55.542Z,-2.17
2016-11-30T03:23:17.260Z,-2.11
2016-11-30T03:23:38.977Z,-2.11
2016-11-30T03:24:00.685Z,-2.14
2016-11-30T03:24:22.396Z,-2.15
2016-11-30T03:24:44.127Z,-2.12
2016-11-30T03:25:05.834Z,-2.08
2016-11-30T03:25:27.562Z,-2.11
2016-11-30T03:25:49.272Z,-2.11
2016-11-30T03:26:10.992Z,-2.18
2016-11-30T03:26:32.699Z,-2.10
2016-11-30T03:26:54.416Z,-2.00
2016-11-30T03:27:16.160Z,-2.04
2016-11-30T03:27:37.883Z,-2.08
2016-11-30T03:27:59.619Z,-2.10
2016-11-30T03:28:21.327Z,-2.12
2016-11-30T03:28:43.027Z,-2.14
2016-11-30T03:29:04.754Z,-2.14
2016-11-30T03:29:26.467Z,-2.12
2016-11-30T03:29:48.184Z,-2.10
2016-11-30T03:30:09.893Z,-2.07
2016-11-30T03:30:31.614Z,-2.02
2016-11-30T03:30:53.434Z,-1.96
2016-11-30T03:31:15.041Z,-1.93
2016-11-30T03:31:36.756Z,-1.95
2016-11-30T03:31:58.472Z,-1.94
2016-11-30T03:32:20.189Z,-1.91
2016-11-30T03:32:41.898Z,-1.87
2016-11-30T03:33:03.622Z,-1.89
2016-11-30T03:33:25.336Z,-1.93
2016-11-30T03:33:47.052Z,-2.04
2016-11-30T03:34:08.762Z,-2.08
2016-11-30T03:34:30.481Z,-2.02
2016-11-30T03:34:52.188Z,-1.97
2016-11-30T03:35:13.908Z,-1.90
2016-11-30T03:35:35.638Z,-2.01
2016-11-30T03:35:57.355Z,-2.11
2016-11-30T03:36:19.069Z,-2.09
2016-11-30T03:36:40.809Z,-2.14
2016-11-30T03:37:03.525Z,-2.17
2016-11-30T03:37:25.240Z,-2.13
2016-11-30T03:37:46.960Z,-2.10
2016-11-30T03:38:08.669Z,-2.07
2016-11-30T03:38:30.377Z,-2.09
2016-11-30T03:38:52.081Z,-2.10
2016-11-30T03:39:13.802Z,-2.05
2016-11-30T03:39:35.513Z,-2.01
2016-11-30T03:39:57.223Z,-2.02
2016-11-30T03:40:19.066Z,-2.08
2016-11-30T03:40:40.780Z,-2.10
2016-11-30T03:41:02.479Z,-2.03
2016-11-30T03:41:24.193Z,-2.02
2016-11-30T03:41:45.901Z,-2.01
2016-11-30T03:42:07.613Z,-2.02
2016-11-30T03:42:29.330Z,-2.07
2016-11-30T03:42:51.037Z,-2.08
2016-11-30T03:43:12.764Z,-2.08
2016-11-30T03:43:34.480Z,-2.13
2016-11-30T03:44:00.965Z,-2.20
2016-11-30T03:44:22.684Z,-2.19
2016-11-30T03:45:10.877Z,-2.25
2016-11-30T03:45:37.367Z,-2.29
2016-11-30T03:45:59.075Z,-2.33
2016-11-30T03:46:20.793Z,-2.35
2016-11-30T03:46:42.507Z,-2.34
2016-11-30T03:47:04.211Z,-2.36
2016-11-30T03:47:25.934Z,-2.32
2016-11-30T03:47:47.651Z,-2.17
2016-11-30T03:48:09.366Z,-2.15
2016-11-30T03:48:31.092Z,-2.20
2016-11-30T03:48:52.805Z,-2.23
2016-11-30T03:49:14.514Z,-2.23
2016-11-30T03:49:36.233Z,-2.28
2016-11-30T03:49:57.943Z,-2.31
2016-11-30T03:50:19.657Z,-2.35
2016-11-30T03:50:41.370Z,-2.40
2016-11-30T03:51:03.078Z,-2.48
2016-11-30T03:51:24.805Z,-2.51
2016-11-30T03:51:46.523Z,-2.50
2016-11-30T03:52:13.007Z,-2.49
2016-11-30T03:52:34.724Z,-2.50
2016-11-30T03:52:56.437Z,-2.46
2016-11-30T03:53:18.142Z,-2.46
2016-11-30T03:53:39.873Z,-2.44
2016-11-30T03:54:01.593Z,-2.43
2016-11-30T03:54:23.309Z,-2.38
2016-11-30T03:54:45.026Z,-2.32
2016-11-30T03:55:06.742Z,-2.33
2016-11-30T03:55:28.456Z,-2.34
2016-11-30T03:55:50.176Z,-2.25
2016-11-30T03:56:11.881Z,-2.15
2016-11-30T03:56:33.603Z,-2.20
2016-11-30T03:56:55.311Z,-2.25
2016-11-30T03:57:17.019Z,-2.35
2016-11-30T03:57:38.742Z,-2.45
2016-11-30T03:58:00.451Z,-2.46
2016-11-30T03:58:22.164Z,-2.49
2016-11-30T03:58:43.881Z,-2.49
2016-11-30T03:59:05.599Z,-2.53
2016-11-30T03:59:27.324Z,-2.45
2016-11-30T03:59:49.037Z,-2.39
2016-11-30T04:00:10.749Z,-2.22
2016-11-30T04:00:32.472Z,-2.14
2016-11-30T04:00:54.184Z,-2.19
2016-11-30T04:01:15.907Z,-2.28
2016-11-30T04:01:37.615Z,-2.39
2016-11-30T04:01:59.330Z,-2.46
2016-11-30T04:02:21.040Z,-2.47
2016-11-30T04:02:42.756Z,-2.34
2016-11-30T04:03:04.469Z,-2.29
2016-11-30T04:03:26.186Z,-2.25
2016-11-30T04:03:47.904Z,-2.29
2016-11-30T04:04:36.103Z,-2.40
2016-11-30T04:04:57.812Z,-2.42
2016-11-30T04:05:19.520Z,-2.45
2016-11-30T04:05:41.224Z,-2.31
2016-11-30T04:06:02.937Z,-2.23
2016-11-30T04:06:24.675Z,-2.25
2016-11-30T04:06:46.396Z,-2.33
2016-11-30T04:07:08.104Z,-2.37
2016-11-30T04:07:29.821Z,-2.49
2016-11-30T04:07:51.533Z,-2.53
2016-11-30T04:08:13.245Z,-2.47
2016-11-30T04:08:34.957Z,-2.44
2016-11-30T04:08:56.675Z,-2.38
2016-11-30T04:09:18.383Z,-2.30
2016-11-30T04:09:40.106Z,-2.32
2016-11-30T04:10:01.820Z,-2.25
2016-11-30T04:10:23.551Z,-2.21
2016-11-30T04:10:45.257Z,-2.32
2016-11-30T04:11:06.970Z,-2.35
2016-11-30T04:11:28.685Z,-2.32
2016-11-30T04:11:50.405Z,-2.32
2016-11-30T04:12:12.100Z,-2.42
2016-11-30T04:12:33.828Z,-2.50
2016-11-30T04:12:55.539Z,-2.52
2016-11-30T04:13:17.259Z,-2.52
2016-11-30T04:13:38.970Z,-2.41
2016-11-30T04:14:00.688Z,-2.36
2016-11-30T04:14:22.398Z,-2.20
2016-11-30T04:14:44.107Z,-2.16
2016-11-30T04:15:05.823Z,-2.25
2016-11-30T04:15:27.552Z,-2.35
2016-11-30T04:15:49.266Z,-2.47
2016-11-30T04:16:10.985Z,-2.59
2016-11-30T04:16:32.697Z,-2.71
2016-11-30T04:16:54.408Z,-2.65
2016-11-30T04:17:16.122Z,-2.67
2016-11-30T04:17:37.837Z,-2.66
2016-11-30T04:17:59.559Z,-2.50
2016-11-30T04:18:21.269Z,-2.45
2016-11-30T04:18:42.977Z,-2.47
2016-11-30T04:19:04.698Z,-2.53
2016-11-30T04:19:26.412Z,-2.59
2016-11-30T04:19:48.151Z,-2.65
2016-11-30T04:20:09.877Z,-2.65
2016-11-30T04:20:31.594Z,-2.69
2016-11-30T04:20:53.298Z,-2.69
2016-11-30T04:21:15.018Z,-2.63
2016-11-30T04:21:36.727Z,-2.39
2016-11-30T04:21:58.447Z,-2.36
2016-11-30T04:22:20.163Z,-2.39
2016-11-30T04:22:41.880Z,-2.39
2016-11-30T04:23:03.610Z,-2.58
2016-11-30T04:23:25.364Z,-2.60
2016-11-30T04:23:47.067Z,-2.48
2016-11-30T04:24:08.781Z,-2.44
2016-11-30T04:24:30.530Z,-2.46
2016-11-30T04:24:52.247Z,-2.34
2016-11-30T04:25:13.959Z,-2.27
2016-11-30T04:25:35.672Z,-2.15
2016-11-30T04:25:57.397Z,-2.04
2016-11-30T04:26:19.114Z,-1.99
2016-11-30T04:26:40.826Z,-1.94
2016-11-30T04:27:02.536Z,-2.12
2016-11-30T04:27:24.253Z,-2.10
2016-11-30T04:27:45.976Z,-2.01
2016-11-30T04:28:07.687Z,-2.00
2016-11-30T04:28:29.394Z,-1.85
2016-11-30T04:28:51.109Z,-1.79
2016-11-30T04:29:12.836Z,-1.76
2016-11-30T04:29:34.554Z,-1.74
2016-11-30T04:29:56.280Z,-1.64
2016-11-30T04:30:17.994Z,-1.63
2016-11-30T04:30:39.713Z,-1.61
2016-11-30T04:31:01.431Z,-1.83
2016-11-30T04:31:23.159Z,-2.14
2016-11-30T04:31:44.870Z,-2.10
2016-11-30T04:32:06.582Z,-2.00
2016-11-30T04:32:28.297Z,-1.98
2016-11-30T04:32:50.016Z,-1.89
2016-11-30T04:33:11.740Z,-1.81
2016-11-30T04:33:33.458Z,-1.75
2016-11-30T04:33:55.193Z,-1.82
2016-11-30T04:34:16.911Z,-1.73
2016-11-30T04:34:38.627Z,-1.72
2016-11-30T04:35:00.342Z,-1.79
2016-11-30T04:35:22.061Z,-1.75
2016-11-30T04:35:43.771Z,-1.82
2016-11-30T04:36:05.488Z,-1.95
2016-11-30T04:36:27.258Z,-2.06
2016-11-30T04:36:48.974Z,-2.14
2016-11-30T04:37:10.687Z,-2.18
2016-11-30T04:37:32.399Z,-2.22
2016-11-30T04:37:54.117Z,-2.29
2016-11-30T04:38:15.833Z,-2.30
2016-11-30T04:38:37.574Z,-2.37
2016-11-30T04:38:59.285Z,-2.50
2016-11-30T04:39:21.006Z,-2.53
2016-11-30T04:39:42.719Z,-2.50
2016-11-30T04:40:04.433Z,-2.53
2016-11-30T04:40:26.158Z,-2.56
2016-11-30T04:40:47.873Z,-2.64
2016-11-30T04:41:09.591Z,-2.70
2016-11-30T04:41:31.306Z,-2.69
2016-11-30T04:41:53.022Z,-2.71